createdAt,value
2022-08-03T00:01:53.239Z,20.75
2022-08-03T00:04:20.183Z,20.80
2022-08-03T00:06:47.041Z,20.81
2022-08-03T00:09:13.880Z,20.81
2022-08-03T00:11:40.710Z,20.69
2022-08-03T00:14:08.377Z,20.62
2022-08-03T00:16:35.333Z,20.58
2022-08-03T00:19:03.276Z,20.61
2022-08-03T00:21:30.186Z,20.60
2022-08-03T00:23:57.045Z,20.65
2022-08-03T00:26:23.929Z,20.64
2022-08-03T00:28:51.433Z,20.59
2022-08-03T00:31:27.742Z,20.60
2022-08-03T00:34:06.135Z,20.45
2022-08-03T00:36:33.795Z,20.31
2022-08-03T00:39:00.622Z,20.28
2022-08-03T00:41:27.597Z,20.27
2022-08-03T00:43:54.433Z,20.22
2022-08-03T00:46:22.454Z,20.19
2022-08-03T00:48:53.319Z,20.19
2022-08-03T00:51:23.311Z,20.01
2022-08-03T00:53:50.996Z,19.94
2022-08-03T00:56:18.401Z,19.91
2022-08-03T00:58:46.848Z,19.87
2022-08-03T01:01:14.317Z,19.89
2022-08-03T01:03:41.586Z,19.85
2022-08-03T01:06:38.777Z,19.93
2022-08-03T01:10:01.236Z,19.83
2022-08-03T01:14:01.202Z,19.71
2022-08-03T01:16:52.819Z,19.58
2022-08-03T01:19:45.849Z,19.52
2022-08-03T01:22:50.063Z,19.54
2022-08-03T01:25:54.577Z,19.54
2022-08-03T01:28:54.632Z,19.49
2022-08-03T01:31:28.574Z,19.47
2022-08-03T01:34:03.224Z,19.50
2022-08-03T01:36:37.421Z,19.51
2022-08-03T01:39:11.367Z,19.53
2022-08-03T01:41:49.559Z,19.48
2022-08-03T01:44:29.459Z,19.41
2022-08-03T01:47:00.810Z,19.31
2022-08-03T01:49:30.390Z,19.33
2022-08-03T01:52:04.542Z,19.26
2022-08-03T01:54:42.214Z,19.18
2022-08-03T01:57:11.050Z,19.19
2022-08-03T01:59:40.393Z,19.23
2022-08-03T02:02:27.683Z,19.22
2022-08-03T02:04:57.656Z,19.03
2022-08-03T02:07:27.081Z,18.98
2022-08-03T02:09:55.697Z,18.98
2022-08-03T02:12:25.703Z,18.93
2022-08-03T02:14:54.154Z,18.89
2022-08-03T02:17:38.974Z,18.94
2022-08-03T02:20:11.833Z,18.94
2022-08-03T02:22:43.218Z,18.92
2022-08-03T02:25:13.465Z,18.91
2022-08-03T02:27:48.538Z,18.94
2022-08-03T02:30:15.951Z,18.91
2022-08-03T02:32:52.109Z,18.91
2022-08-03T02:35:23.318Z,18.95
2022-08-03T02:38:03.357Z,18.97
2022-08-03T02:40:32.289Z,18.90
2022-08-03T02:43:12.109Z,18.89
2022-08-03T02:45:45.642Z,18.93
2022-08-03T02:48:17.776Z,19.01
2022-08-03T02:50:45.946Z,18.93
2022-08-03T02:53:14.105Z,18.92
2022-08-03T02:55:43.287Z,18.93
2022-08-03T02:58:14.349Z,18.91
2022-08-03T03:00:44.437Z,18.91
2022-08-03T03:03:11.780Z,18.78
2022-08-03T03:05:54.774Z,18.77
2022-08-03T03:08:28.222Z,18.72
2022-08-03T03:11:01.018Z,18.70
2022-08-03T03:13:30.500Z,18.68
2022-08-03T03:16:04.133Z,18.67
2022-08-03T03:18:35.375Z,18.71
2022-08-03T03:21:04.157Z,18.73
2022-08-03T03:23:36.026Z,18.61
2022-08-03T03:26:04.095Z,18.60
2022-08-03T03:28:32.508Z,18.58
2022-08-03T03:31:00.740Z,18.53
2022-08-03T03:33:28.630Z,18.43
2022-08-03T03:35:56.166Z,18.46
2022-08-03T03:38:22.994Z,18.43
2022-08-03T03:40:50.152Z,18.48
2022-08-03T03:43:18.568Z,18.47
2022-08-03T03:45:47.601Z,18.44
2022-08-03T03:48:15.329Z,18.41
2022-08-03T03:50:43.925Z,18.51
2022-08-03T03:53:12.943Z,18.47
2022-08-03T03:55:59.333Z,18.49
2022-08-03T03:58:27.783Z,18.36
2022-08-03T04:00:54.653Z,18.27
2022-08-03T04:03:21.706Z,18.34
2022-08-03T04:06:07.307Z,18.29
2022-08-03T04:08:52.655Z,18.28
2022-08-03T04:11:52.087Z,18.30
2022-08-03T04:14:30.511Z,18.32
2022-08-03T04:17:03.563Z,18.30
2022-08-03T04:19:43.768Z,18.41
2022-08-03T04:22:12.662Z,18.47
2022-08-03T04:24:50.018Z,18.55
2022-08-03T04:27:31.739Z,18.62
2022-08-03T04:30:02.860Z,18.67
2022-08-03T04:32:31.281Z,18.76
2022-08-03T04:34:58.386Z,18.76
2022-08-03T04:37:39.822Z,18.85
2022-08-03T04:40:11.413Z,18.87
2022-08-03T04:42:39.516Z,18.88
2022-08-03T04:45:08.213Z,18.94
2022-08-03T04:47:35.881Z,19.03
2022-08-03T04:50:11.909Z,19.17
2022-08-03T04:52:40.024Z,19.31
2022-08-03T04:55:07.453Z,19.28
2022-08-03T04:57:34.269Z,19.41
2022-08-03T05:00:03.630Z,19.50
2022-08-03T05:02:31.392Z,19.66
2022-08-03T05:04:59.981Z,19.70
2022-08-03T05:07:35.584Z,19.81
2022-08-03T05:10:05.960Z,19.81
2022-08-03T05:12:42.567Z,19.92
2022-08-03T05:15:10.295Z,20.00
2022-08-03T05:17:37.108Z,20.07
2022-08-03T05:20:05.481Z,20.18
2022-08-03T05:22:32.500Z,20.34
2022-08-03T05:25:01.136Z,20.50
2022-08-03T05:27:27.984Z,20.61
2022-08-03T05:29:54.853Z,20.79
2022-08-03T05:32:22.198Z,20.97
2022-08-03T05:34:49.228Z,21.14
2022-08-03T05:37:16.098Z,21.28
2022-08-03T05:39:43.377Z,21.43
2022-08-03T05:42:10.641Z,21.62
2022-08-03T05:44:38.759Z,21.78
2022-08-03T05:47:06.177Z,21.87
2022-08-03T05:49:33.149Z,22.02
2022-08-03T05:52:12.646Z,22.19
2022-08-03T05:54:57.432Z,22.36
2022-08-03T05:57:25.794Z,22.51
2022-08-03T05:59:54.772Z,22.67
2022-08-03T06:02:26.509Z,22.80
2022-08-03T06:04:53.607Z,23.01
2022-08-03T06:07:20.424Z,23.23
2022-08-03T06:10:34.435Z,23.56
2022-08-03T06:12:36.787Z,23.59
2022-08-03T06:15:07.841Z,24.02
2022-08-03T06:17:48.961Z,24.31
2022-08-03T06:20:20.559Z,24.68
2022-08-03T06:22:51.403Z,24.94
2022-08-03T06:25:27.553Z,25.34
2022-08-03T06:27:54.408Z,25.58
2022-08-03T06:30:21.612Z,25.74
2022-08-03T06:32:52.152Z,26.04
2022-08-03T06:35:20.122Z,26.33
2022-08-03T06:37:49.630Z,26.55
2022-08-03T06:40:29.634Z,27.00
2022-08-03T06:42:57.964Z,27.19
2022-08-03T06:45:25.345Z,27.58
2022-08-03T06:48:07.062Z,27.44
2022-08-03T06:50:36.709Z,27.85
2022-08-03T06:53:05.325Z,28.18
2022-08-03T06:55:33.118Z,28.27
2022-08-03T06:58:03.190Z,28.35
2022-08-03T07:00:30.966Z,28.45
2022-08-03T07:02:58.588Z,28.44
2022-08-03T07:05:26.176Z,28.57
2022-08-03T07:07:57.619Z,28.94
2022-08-03T07:10:24.898Z,28.73
2022-08-03T07:12:56.006Z,29.23
2022-08-03T07:15:54.916Z,28.92
2022-08-03T07:18:11.840Z,29.16
2022-08-03T07:20:38.733Z,29.40
2022-08-03T07:23:05.605Z,29.62
2022-08-03T07:25:32.533Z,29.42
2022-08-03T07:27:59.663Z,29.71
2022-08-03T07:30:26.542Z,29.47
2022-08-03T07:32:53.441Z,29.65
2022-08-03T07:35:25.069Z,29.92
2022-08-03T07:37:54.750Z,29.88
2022-08-03T07:40:22.852Z,30.08
2022-08-03T07:42:52.275Z,30.14
2022-08-03T07:45:23.311Z,29.98
2022-08-03T07:47:53.558Z,30.22
2022-08-03T07:50:21.809Z,30.32
2022-08-03T07:52:49.780Z,30.54
2022-08-03T07:55:21.204Z,30.33
2022-08-03T07:58:00.275Z,30.52
2022-08-03T08:00:27.251Z,30.84
2022-08-03T08:02:54.227Z,30.87
2022-08-03T08:05:21.354Z,30.92
2022-08-03T08:07:50.994Z,30.97
2022-08-03T08:10:18.779Z,31.28
2022-08-03T08:12:45.788Z,31.01
2022-08-03T08:15:12.837Z,31.26
2022-08-03T08:17:50.045Z,31.50
2022-08-03T08:20:30.777Z,31.70
2022-08-03T08:23:19.963Z,31.55
2022-08-03T08:25:52.908Z,31.70
2022-08-03T08:28:32.151Z,31.06
2022-08-03T08:31:00.706Z,31.44
2022-08-03T08:33:37.350Z,31.57
2022-08-03T08:36:14.815Z,31.74
2022-08-03T08:38:44.370Z,31.98
2022-08-03T08:41:13.422Z,31.41
2022-08-03T08:43:41.805Z,31.29
2022-08-03T08:46:12.998Z,31.57
2022-08-03T08:48:51.595Z,32.11
2022-08-03T08:51:21.350Z,32.01
2022-08-03T08:53:53.648Z,32.04
2022-08-03T08:56:25.334Z,32.21
2022-08-03T08:58:57.965Z,32.43
2022-08-03T09:01:25.402Z,32.64
2022-08-03T09:03:54.167Z,32.14
2022-08-03T09:06:22.762Z,32.27
2022-08-03T09:08:49.997Z,31.66
2022-08-03T09:11:21.408Z,31.88
2022-08-03T09:14:10.284Z,32.20
2022-08-03T09:17:02.504Z,32.43
2022-08-03T09:19:31.463Z,32.82
2022-08-03T09:22:16.630Z,32.45
2022-08-03T09:25:23.878Z,32.84
2022-08-03T09:27:51.644Z,32.75
2022-08-03T09:30:33.767Z,32.38
2022-08-03T09:33:08.543Z,32.33
2022-08-03T09:35:57.391Z,32.20
2022-08-03T09:38:28.124Z,32.43
2022-08-03T09:40:59.936Z,32.42
2022-08-03T09:43:28.588Z,32.65
2022-08-03T09:46:07.266Z,33.02
2022-08-03T09:48:37.354Z,33.19
2022-08-03T09:51:14.268Z,33.16
2022-08-03T09:53:58.819Z,33.34
2022-08-03T09:56:45.998Z,33.49
2022-08-03T09:59:23.741Z,33.64
2022-08-03T10:01:50.681Z,34.00
2022-08-03T10:04:17.690Z,34.18
2022-08-03T10:07:12.551Z,33.76
2022-08-03T10:09:57.074Z,33.48
2022-08-03T10:12:25.329Z,33.92
2022-08-03T10:14:53.308Z,33.45
2022-08-03T10:17:22.222Z,33.49
2022-08-03T10:19:50.474Z,33.43
2022-08-03T10:22:22.883Z,34.15
2022-08-03T10:25:09.721Z,34.19
2022-08-03T10:27:43.017Z,33.98
2022-08-03T10:30:11.982Z,33.66
2022-08-03T10:32:46.213Z,33.71
2022-08-03T10:35:21.654Z,33.73
2022-08-03T10:38:00.632Z,34.05
2022-08-03T10:43:23.086Z,34.86
2022-08-03T10:45:51.886Z,35.17
2022-08-03T10:48:19.846Z,35.15
2022-08-03T10:50:49.139Z,35.69
2022-08-03T10:53:18.607Z,35.82
2022-08-03T10:56:05.871Z,36.17
2022-08-03T10:58:53.311Z,35.22
2022-08-03T11:01:59.025Z,35.25
2022-08-03T11:04:29.518Z,34.77
2022-08-03T11:07:24.833Z,34.93
2022-08-03T11:09:55.321Z,35.27
2022-08-03T11:12:32.252Z,35.33
2022-08-03T11:15:07.150Z,35.60
2022-08-03T11:17:46.518Z,34.84
2022-08-03T11:20:51.041Z,34.92
2022-08-03T11:24:05.253Z,35.48
2022-08-03T11:26:29.214Z,35.56
2022-08-03T11:29:31.708Z,35.56
2022-08-03T11:31:58.872Z,34.96
2022-08-03T11:34:26.548Z,35.52
2022-08-03T11:37:26.361Z,35.98
2022-08-03T11:39:57.191Z,35.90
2022-08-03T11:42:24.261Z,36.46
2022-08-03T11:44:53.248Z,36.74
2022-08-03T11:47:26.828Z,36.69
2022-08-03T11:50:00.584Z,37.05
2022-08-03T11:52:34.753Z,36.80
2022-08-03T11:55:02.330Z,37.25
2022-08-03T11:59:17.833Z,36.85
2022-08-03T12:00:33.205Z,36.37
2022-08-03T12:03:08.018Z,36.20
2022-08-03T12:05:51.129Z,36.08
2022-08-03T12:08:28.017Z,36.63
2022-08-03T12:10:57.558Z,36.38
2022-08-03T12:14:44.169Z,36.61
2022-08-03T12:16:21.516Z,36.45
2022-08-03T12:19:02.847Z,36.90
2022-08-03T12:21:31.131Z,37.16
2022-08-03T12:24:03.942Z,37.20
2022-08-03T12:26:59.032Z,36.97
2022-08-03T12:29:27.380Z,36.64
2022-08-03T12:31:56.079Z,36.96
2022-08-03T12:34:23.226Z,36.99
2022-08-03T12:36:53.217Z,36.85
2022-08-03T12:39:25.585Z,36.83
2022-08-03T12:41:57.391Z,37.07
2022-08-03T12:44:35.927Z,37.08
2022-08-03T12:47:06.821Z,37.39
2022-08-03T12:49:51.738Z,36.86
2022-08-03T12:52:22.193Z,37.13
2022-08-03T12:55:00.663Z,38.23
2022-08-03T12:57:41.924Z,38.24
2022-08-03T13:00:21.291Z,37.97
2022-08-03T13:05:54.485Z,37.54
2022-08-03T13:08:25.074Z,37.40
2022-08-03T13:10:52.155Z,38.40
2022-08-03T13:13:20.753Z,38.97
2022-08-03T13:15:48.351Z,38.54
2022-08-03T13:18:17.353Z,38.32
2022-08-03T13:20:44.637Z,39.03
2022-08-03T13:23:21.907Z,39.39
2022-08-03T13:25:55.132Z,39.37
2022-08-03T13:28:23.176Z,39.35
2022-08-03T13:30:50.182Z,39.32
2022-08-03T13:33:17.510Z,38.68
2022-08-03T13:35:44.415Z,38.69
2022-08-03T13:38:11.370Z,39.35
2022-08-03T13:40:41.730Z,39.22
2022-08-03T13:43:09.025Z,39.01
2022-08-03T13:45:36.183Z,38.75
2022-08-03T13:48:03.067Z,39.17
2022-08-03T13:50:31.296Z,38.80
2022-08-03T13:52:58.650Z,38.88
2022-08-03T13:55:25.570Z,39.49
2022-08-03T13:58:03.078Z,39.64
2022-08-03T14:00:34.061Z,38.89
2022-08-03T14:03:09.088Z,38.95
2022-08-03T14:05:40.215Z,39.35
2022-08-03T14:08:07.842Z,40.01
2022-08-03T14:10:41.120Z,39.63
2022-08-03T14:13:08.809Z,39.37
2022-08-03T14:15:38.249Z,39.63
2022-08-03T14:18:13.020Z,39.34
2022-08-03T14:20:47.757Z,39.32
2022-08-03T14:23:17.658Z,39.67
2022-08-03T14:25:51.722Z,39.60
2022-08-03T14:28:22.934Z,39.67
2022-08-03T14:30:51.710Z,40.13
2022-08-03T14:33:18.654Z,40.97
2022-08-03T14:35:45.494Z,40.31
2022-08-03T14:38:12.350Z,40.87
2022-08-03T14:40:39.468Z,39.65
2022-08-03T14:43:06.413Z,40.03
2022-08-03T14:45:34.291Z,40.20
2022-08-03T14:50:10.491Z,40.08
2022-08-03T14:50:51.739Z,40.20
2022-08-03T14:53:19.711Z,40.45
2022-08-03T14:55:49.941Z,41.18
2022-08-03T14:58:21.426Z,41.03
2022-08-03T15:00:51.228Z,41.61
2022-08-03T15:03:25.396Z,41.86
2022-08-03T15:05:54.745Z,42.04
2022-08-03T15:08:23.518Z,42.74
2022-08-03T15:10:51.559Z,43.26
2022-08-03T15:13:19.903Z,43.09
2022-08-03T15:15:47.858Z,41.97
2022-08-03T15:18:14.761Z,42.62
2022-08-03T15:20:46.351Z,43.34
2022-08-03T15:23:15.575Z,43.98
2022-08-03T15:26:04.211Z,44.85
2022-08-03T15:28:31.903Z,44.63
2022-08-03T15:30:58.870Z,45.13
2022-08-03T15:33:25.696Z,45.43
2022-08-03T15:35:53.318Z,45.07
2022-08-03T15:38:25.734Z,45.51
2022-08-03T15:40:56.033Z,46.07
2022-08-03T15:43:23.890Z,46.50
2022-08-03T15:46:27.761Z,46.29
2022-08-03T15:48:45.632Z,45.57
2022-08-03T15:51:12.547Z,44.28
2022-08-03T15:53:39.445Z,42.77
2022-08-03T15:56:12.106Z,41.72
2022-08-03T15:59:09.397Z,40.03
2022-08-03T16:01:28.137Z,39.08
2022-08-03T16:03:55.011Z,38.40
2022-08-03T16:06:35.032Z,37.72
2022-08-03T16:09:23.385Z,36.96
2022-08-03T16:11:53.585Z,36.52
2022-08-03T16:14:32.671Z,36.31
2022-08-03T16:17:05.214Z,36.19
2022-08-03T16:19:32.153Z,36.38
2022-08-03T16:21:59.170Z,36.34
2022-08-03T16:24:28.035Z,36.19
2022-08-03T16:26:56.020Z,35.98
2022-08-03T16:29:23.807Z,35.81
2022-08-03T16:31:51.850Z,35.62
2022-08-03T16:34:19.307Z,35.60
2022-08-03T16:36:46.117Z,35.11
2022-08-03T16:39:13.023Z,34.87
2022-08-03T16:41:54.393Z,34.78
2022-08-03T16:44:28.636Z,34.59
2022-08-03T16:46:55.467Z,34.58
2022-08-03T16:49:54.593Z,34.55
2022-08-03T16:52:09.202Z,34.33
2022-08-03T16:54:39.814Z,34.34
2022-08-03T16:57:07.529Z,34.12
2022-08-03T16:59:36.731Z,34.08
2022-08-03T17:02:12.706Z,33.98
2022-08-03T17:04:40.250Z,34.18
2022-08-03T17:07:08.919Z,33.98
2022-08-03T17:09:39.051Z,33.92
2022-08-03T17:12:07.536Z,33.87
2022-08-03T17:14:39.755Z,33.85
2022-08-03T17:17:17.862Z,33.67
2022-08-03T17:19:47.478Z,33.42
2022-08-03T17:22:28.646Z,32.99
2022-08-03T17:24:58.750Z,32.86
2022-08-03T17:28:49.456Z,32.75
2022-08-03T17:30:17.527Z,32.64
2022-08-03T17:32:57.063Z,32.44
2022-08-03T17:35:34.333Z,32.41
2022-08-03T17:38:07.734Z,32.31
2022-08-03T17:40:38.035Z,32.29
2022-08-03T17:44:14.509Z,32.19
2022-08-03T17:45:55.039Z,32.37
2022-08-03T17:48:24.954Z,32.32
2022-08-03T17:51:07.781Z,32.51
2022-08-03T17:53:53.935Z,32.34
2022-08-03T17:56:45.668Z,32.34
2022-08-03T17:59:51.521Z,32.17
2022-08-03T18:02:57.133Z,32.09
2022-08-03T18:06:10.356Z,31.68
2022-08-03T18:08:24.797Z,31.41
2022-08-03T18:11:03.338Z,31.22
2022-08-03T18:13:57.799Z,30.98
2022-08-03T18:16:34.017Z,30.86
2022-08-03T18:19:09.227Z,30.80
2022-08-03T18:22:03.231Z,30.57
2022-08-03T18:24:29.095Z,30.34
2022-08-03T18:26:59.247Z,30.23
2022-08-03T18:29:27.629Z,30.12
2022-08-03T18:32:03.745Z,29.98
2022-08-03T18:34:34.480Z,29.94
2022-08-03T18:37:07.234Z,29.76
2022-08-03T18:39:49.495Z,29.84
2022-08-03T18:42:19.423Z,29.69
2022-08-03T18:44:52.945Z,29.57
2022-08-03T18:47:50.800Z,29.42
2022-08-03T18:50:50.172Z,29.42
2022-08-03T18:54:02.992Z,29.31
2022-08-03T18:56:29.840Z,28.60
2022-08-03T18:59:11.479Z,28.39
2022-08-03T19:02:00.852Z,28.19
2022-08-03T19:05:03.731Z,28.20
2022-08-03T19:07:36.091Z,27.80
2022-08-03T19:10:10.159Z,27.60
2022-08-03T19:12:54.363Z,27.76
2022-08-03T19:15:36.953Z,27.67
2022-08-03T19:18:11.807Z,27.72
2022-08-03T19:20:46.715Z,27.74
2022-08-03T19:23:14.338Z,27.74
2022-08-03T19:25:41.435Z,27.74
2022-08-03T19:28:09.371Z,27.70
2022-08-03T19:30:53.290Z,27.63
2022-08-03T19:33:21.530Z,27.54
2022-08-03T19:35:54.891Z,27.34
2022-08-03T19:38:28.608Z,27.53
2022-08-03T19:41:03.170Z,27.64
2022-08-03T19:43:52.850Z,27.58
2022-08-03T19:46:30.913Z,27.54
2022-08-03T19:49:15.243Z,27.55
2022-08-03T19:52:00.634Z,27.46
2022-08-03T19:54:39.656Z,27.28
2022-08-03T19:57:24.787Z,27.27
2022-08-03T19:59:55.062Z,27.32
2022-08-03T20:02:27.268Z,27.27
2022-08-03T20:04:57.032Z,27.33
2022-08-03T20:07:25.970Z,27.28
2022-08-03T20:09:56.584Z,27.37
2022-08-03T20:12:27.653Z,27.36
2022-08-03T20:14:57.812Z,27.40
2022-08-03T20:17:54.127Z,27.33
2022-08-03T20:20:13.010Z,27.33
2022-08-03T20:22:45.551Z,27.04
2022-08-03T20:25:20.642Z,26.96
2022-08-03T20:28:07.272Z,26.87
2022-08-03T20:30:39.458Z,26.94
2022-08-03T20:33:09.483Z,26.87
2022-08-03T20:35:36.378Z,26.75
2022-08-03T20:38:03.712Z,26.68
2022-08-03T20:40:30.544Z,26.68
2022-08-03T20:42:57.690Z,26.49
2022-08-03T20:45:58.553Z,26.53
2022-08-03T20:48:11.486Z,26.19
2022-08-03T20:50:44.045Z,25.98
2022-08-03T20:53:12.503Z,25.94
2022-08-03T20:55:47.499Z,25.91
2022-08-03T20:58:27.210Z,25.92
2022-08-03T21:00:56.731Z,25.85
2022-08-03T21:03:23.674Z,25.81
2022-08-03T21:05:53.542Z,25.71
2022-08-03T21:08:46.867Z,25.63
2022-08-03T21:11:18.828Z,25.74
2022-08-03T21:14:09.164Z,25.56
2022-08-03T21:16:40.635Z,25.51
2022-08-03T21:19:07.972Z,25.48
2022-08-03T21:21:39.055Z,25.44
2022-08-03T21:24:08.196Z,25.37
2022-08-03T21:26:38.939Z,25.33
2022-08-03T21:29:06.246Z,25.29
2022-08-03T21:31:33.117Z,25.31
2022-08-03T21:34:05.321Z,25.30
2022-08-03T21:36:35.279Z,25.29
2022-08-03T21:39:06.925Z,25.26
2022-08-03T21:41:34.475Z,25.13
2022-08-03T21:44:03.215Z,25.03
2022-08-03T21:46:37.990Z,25.00
2022-08-03T21:50:06.082Z,25.01
2022-08-03T21:51:59.493Z,25.12
2022-08-03T21:54:39.612Z,25.23
2022-08-03T21:57:24.186Z,25.29
2022-08-03T21:59:57.254Z,25.38
2022-08-03T22:02:31.407Z,25.34
2022-08-03T22:04:59.335Z,25.27
2022-08-03T22:07:28.807Z,25.32
2022-08-03T22:09:57.382Z,25.30
2022-08-03T22:12:28.651Z,25.17
2022-08-03T22:15:00.501Z,25.03
2022-08-03T22:17:54.825Z,24.92
2022-08-03T22:20:21.925Z,24.59
2022-08-03T22:22:56.095Z,24.53
2022-08-03T22:25:29.037Z,24.47
2022-08-03T22:27:58.463Z,24.49
2022-08-03T22:30:25.888Z,24.52
2022-08-03T22:32:56.072Z,24.50
2022-08-03T22:35:26.027Z,24.53
2022-08-03T22:37:58.761Z,24.40
2022-08-03T22:40:27.652Z,24.38
2022-08-03T22:42:54.967Z,24.35
2022-08-03T22:46:07.386Z,24.33
2022-08-03T22:48:08.743Z,24.29
2022-08-03T22:50:35.860Z,24.31
2022-08-03T22:53:02.862Z,24.20
2022-08-03T22:55:31.254Z,24.03
2022-08-03T22:57:58.396Z,23.90
2022-08-03T23:00:25.421Z,23.90
2022-08-03T23:02:54.638Z,23.89
2022-08-03T23:06:00.693Z,23.98
2022-08-03T23:08:15.310Z,24.03
2022-08-03T23:10:47.207Z,24.13
2022-08-03T23:13:19.856Z,24.19
2022-08-03T23:15:56.187Z,24.32
2022-08-03T23:18:25.474Z,24.30
2022-08-03T23:20:53.688Z,24.31
2022-08-03T23:23:23.313Z,24.22
2022-08-03T23:25:51.770Z,24.23
2022-08-03T23:28:18.951Z,24.24
2022-08-03T23:30:47.422Z,24.43
2022-08-03T23:33:16.729Z,24.27
2022-08-03T23:36:27.885Z,24.23
2022-08-03T23:38:44.871Z,24.21
2022-08-03T23:41:13.605Z,24.20
2022-08-03T23:43:51.462Z,24.27
2022-08-03T23:46:21.985Z,24.28
2022-08-03T23:48:49.977Z,24.34
2022-08-03T23:52:02.836Z,24.30
2022-08-03T23:54:53.568Z,24.24
2022-08-03T23:57:32.783Z,24.22
